createdAt,value
2022-11-28T00:01:49.161Z,46.50
2022-11-28T00:04:17.948Z,48.20
2022-11-28T00:06:50.543Z,49.40
2022-11-28T00:09:20.265Z,43.00
2022-11-28T00:11:49.740Z,34.40
2022-11-28T00:14:19.367Z,38.80
2022-11-28T00:16:49.897Z,45.00
2022-11-28T00:19:21.028Z,40.20
2022-11-28T00:21:49.513Z,39.60
2022-11-28T00:24:19.225Z,40.70
2022-11-28T00:26:47.588Z,41.10
2022-11-28T00:29:16.171Z,42.40
2022-11-28T00:31:44.826Z,47.70
2022-11-28T00:34:15.711Z,48.30
2022-11-28T00:36:46.213Z,35.80
2022-11-28T00:39:16.369Z,43.00
2022-11-28T00:41:45.865Z,43.80
2022-11-28T00:44:14.847Z,38.10
2022-11-28T00:46:43.523Z,51.10
2022-11-28T00:49:12.525Z,39.10
2022-11-28T00:51:41.206Z,40.40
2022-11-28T00:54:10.825Z,49.80
2022-11-28T00:56:41.151Z,41.90
2022-11-28T00:59:10.128Z,45.10
2022-11-28T01:01:41.993Z,43.20
2022-11-28T01:04:13.359Z,43.20
2022-11-28T01:06:49.408Z,47.80
2022-11-28T01:09:22.762Z,48.40
2022-11-28T01:11:52.989Z,42.70
2022-11-28T01:14:23.639Z,41.00
2022-11-28T01:16:53.368Z,26.10
2022-11-28T01:19:25.128Z,35.50
2022-11-28T01:21:54.121Z,38.10
2022-11-28T01:24:23.626Z,39.40
2022-11-28T01:26:52.088Z,37.40
2022-11-28T01:29:21.804Z,40.30
2022-11-28T01:31:50.412Z,39.30
2022-11-28T01:34:19.585Z,40.60
2022-11-28T01:36:48.484Z,43.00
2022-11-28T01:39:17.054Z,38.10
2022-11-28T01:41:46.900Z,37.50
2022-11-28T01:44:15.468Z,40.40
2022-11-28T01:46:44.434Z,39.20
2022-11-28T01:49:19.698Z,40.30
2022-11-28T01:51:54.943Z,35.30
2022-11-28T01:54:25.764Z,35.40
2022-11-28T01:56:59.513Z,39.60
2022-11-28T01:59:32.413Z,36.80
2022-11-28T02:02:07.121Z,34.20
2022-11-28T02:04:36.264Z,37.10
2022-11-28T02:07:07.614Z,34.60
2022-11-28T02:09:36.095Z,40.40
2022-11-28T02:12:12.259Z,35.60
2022-11-28T02:15:13.603Z,41.90
2022-11-28T02:18:07.385Z,29.80
2022-11-28T02:21:06.584Z,41.80
2022-11-28T02:24:00.044Z,39.00
2022-11-28T02:26:43.780Z,39.00
2022-11-28T02:29:30.809Z,41.60
2022-11-28T02:32:25.388Z,38.30
2022-11-28T02:35:24.607Z,36.20
2022-11-28T02:38:04.747Z,40.70
2022-11-28T02:40:37.837Z,43.90
2022-11-28T02:44:03.766Z,36.10
2022-11-28T02:46:37.616Z,39.30
2022-11-28T02:49:33.506Z,33.40
2022-11-28T02:52:18.633Z,50.20
2022-11-28T02:54:47.961Z,49.40
2022-11-28T02:57:16.666Z,41.60
2022-11-28T02:59:49.004Z,46.70
2022-11-28T03:02:29.587Z,41.40
2022-11-28T03:05:11.378Z,47.00
2022-11-28T03:08:01.055Z,29.50
2022-11-28T03:10:32.404Z,49.10
2022-11-28T03:13:20.766Z,39.20
2022-11-28T03:16:16.440Z,48.70
2022-11-28T03:19:11.157Z,47.00
2022-11-28T03:21:41.672Z,38.30
2022-11-28T03:24:27.586Z,38.30
2022-11-28T03:27:03.717Z,44.30
2022-11-28T03:29:47.156Z,43.30
2022-11-28T03:32:28.255Z,46.30
2022-11-28T03:35:01.423Z,30.50
2022-11-28T03:37:36.507Z,49.30
2022-11-28T03:40:10.347Z,33.70
2022-11-28T03:42:43.068Z,34.10
2022-11-28T03:45:18.650Z,37.30
2022-11-28T03:47:55.595Z,36.10
2022-11-28T03:50:34.103Z,45.00
2022-11-28T03:53:06.383Z,44.50
2022-11-28T03:55:47.261Z,40.10
2022-11-28T03:58:40.812Z,37.40
2022-11-28T04:01:29.743Z,35.40
2022-11-28T04:04:12.305Z,44.20
2022-11-28T04:07:00.535Z,41.50
2022-11-28T04:09:45.605Z,46.10
2022-11-28T04:12:23.433Z,39.80
2022-11-28T04:15:01.857Z,42.20
2022-11-28T04:17:33.872Z,27.90
2022-11-28T04:20:27.045Z,40.20
2022-11-28T04:23:00.866Z,42.80
2022-11-28T04:25:31.468Z,53.00
2022-11-28T04:28:05.806Z,49.70
2022-11-28T04:30:35.728Z,35.00
2022-11-28T04:33:07.046Z,50.10
2022-11-28T04:35:48.035Z,37.20
2022-11-28T04:38:18.045Z,34.80
2022-11-28T04:41:02.269Z,31.90
2022-11-28T04:43:36.248Z,30.30
2022-11-28T04:46:08.397Z,45.40
2022-11-28T04:48:36.973Z,51.90
2022-11-28T04:51:34.204Z,46.20
2022-11-28T04:54:23.377Z,33.10
2022-11-28T04:57:03.727Z,33.40
2022-11-28T04:59:33.968Z,44.40
2022-11-28T05:02:06.415Z,41.00
2022-11-28T05:04:38.905Z,40.40
2022-11-28T05:07:09.129Z,42.30
2022-11-28T05:09:38.929Z,50.00
2022-11-28T05:12:07.753Z,39.30
2022-11-28T05:14:36.404Z,38.80
2022-11-28T05:17:05.008Z,35.40
2022-11-28T05:19:34.306Z,40.80
2022-11-28T05:22:02.995Z,34.30
2022-11-28T05:24:33.327Z,49.20
2022-11-28T05:27:02.099Z,30.50
2022-11-28T05:29:31.203Z,32.60
2022-11-28T05:32:00.301Z,39.60
2022-11-28T05:34:30.632Z,28.00
2022-11-28T05:36:59.220Z,39.80
2022-11-28T05:39:29.112Z,45.80
2022-11-28T05:41:58.189Z,36.60
2022-11-28T05:44:27.190Z,40.80
2022-11-28T05:46:55.995Z,39.20
2022-11-28T05:49:26.004Z,43.30
2022-11-28T05:51:56.024Z,42.40
2022-11-28T05:54:24.484Z,39.60
2022-11-28T05:56:53.085Z,34.20
2022-11-28T05:59:21.768Z,39.70
2022-11-28T06:01:50.777Z,43.40
2022-11-28T06:04:19.588Z,35.20
2022-11-28T06:06:51.508Z,35.20
2022-11-28T06:09:24.531Z,38.20
2022-11-28T06:11:54.415Z,35.10
2022-11-28T06:14:24.820Z,43.10
2022-11-28T06:16:54.070Z,41.10
2022-11-28T06:19:22.601Z,44.90
2022-11-28T06:21:51.388Z,40.80
2022-11-28T06:24:19.976Z,49.80
2022-11-28T06:26:49.579Z,34.00
2022-11-28T06:29:19.192Z,42.90
2022-11-28T06:31:47.780Z,33.90
2022-11-28T06:34:16.885Z,34.10
2022-11-28T06:36:45.759Z,40.60
2022-11-28T06:39:17.597Z,38.70
2022-11-28T06:41:47.277Z,39.30
2022-11-28T06:44:17.467Z,39.80
2022-11-28T06:46:47.053Z,33.30
2022-11-28T06:49:15.747Z,32.20
2022-11-28T06:51:48.328Z,40.00
2022-11-28T06:54:17.007Z,30.10
2022-11-28T06:56:47.471Z,24.70
2022-11-28T06:59:18.787Z,42.20
2022-11-28T07:01:47.930Z,44.90
2022-11-28T07:04:16.766Z,33.90
2022-11-28T07:06:48.313Z,41.70
2022-11-28T07:09:17.107Z,34.80
2022-11-28T07:11:46.304Z,33.30
2022-11-28T07:14:14.986Z,49.90
2022-11-28T07:16:43.858Z,37.90
2022-11-28T07:19:13.480Z,48.30
2022-11-28T07:21:42.485Z,40.10
2022-11-28T07:24:11.167Z,42.70
2022-11-28T07:26:40.056Z,44.10
2022-11-28T07:29:16.717Z,39.40
2022-11-28T07:31:46.751Z,43.90
2022-11-28T07:34:15.750Z,43.90
2022-11-28T07:36:44.725Z,42.30
2022-11-28T07:39:15.367Z,48.60
2022-11-28T07:41:44.148Z,37.30
2022-11-28T07:44:13.470Z,41.10
2022-11-28T07:46:42.091Z,28.60
2022-11-28T07:49:12.069Z,43.40
2022-11-28T07:51:41.750Z,40.90
2022-11-28T07:54:10.536Z,32.70
2022-11-28T07:57:10.938Z,30.10
2022-11-28T07:59:28.698Z,34.30
2022-11-28T08:01:57.492Z,45.40
2022-11-28T08:04:26.223Z,36.80
2022-11-28T08:06:56.029Z,39.30
2022-11-28T08:09:24.784Z,43.10
2022-11-28T08:11:53.478Z,48.10
2022-11-28T08:14:23.984Z,44.90
2022-11-28T08:16:52.717Z,42.30
2022-11-28T08:19:24.811Z,41.20
2022-11-28T08:21:53.835Z,44.10
2022-11-28T08:24:22.737Z,40.00
2022-11-28T08:26:51.516Z,46.10
2022-11-28T08:29:20.911Z,44.10
2022-11-28T08:31:49.487Z,54.70
2022-11-28T08:34:18.297Z,45.50
2022-11-28T08:36:49.116Z,41.10
2022-11-28T08:39:25.490Z,41.30
2022-11-28T08:41:59.927Z,44.00
2022-11-28T08:44:30.893Z,35.20
2022-11-28T08:46:59.628Z,30.10
2022-11-28T08:49:29.851Z,42.60
2022-11-28T08:51:59.153Z,43.60
2022-11-28T08:54:27.751Z,47.80
2022-11-28T08:56:56.519Z,44.00
2022-11-28T08:59:25.750Z,36.30
2022-11-28T09:01:54.569Z,43.40
2022-11-28T09:04:24.203Z,41.20
2022-11-28T09:06:54.590Z,42.50
2022-11-28T09:09:23.535Z,42.40
2022-11-28T09:11:52.113Z,39.10
2022-11-28T09:14:21.527Z,39.60
2022-11-28T09:16:50.711Z,42.40
2022-11-28T09:19:19.405Z,40.30
2022-11-28T09:21:49.329Z,36.40
2022-11-28T09:24:20.665Z,33.00
2022-11-28T09:26:49.245Z,31.00
2022-11-28T09:29:17.961Z,34.60
2022-11-28T09:31:47.651Z,33.80
2022-11-28T09:34:16.531Z,31.40
2022-11-28T09:36:45.136Z,32.70
2022-11-28T09:39:14.129Z,36.60
2022-11-28T09:42:09.217Z,34.70
2022-11-28T09:45:03.508Z,41.70
2022-11-28T09:47:34.773Z,32.90
2022-11-28T09:50:15.315Z,24.70
2022-11-28T09:53:15.020Z,36.50
2022-11-28T09:55:55.034Z,36.30
2022-11-28T09:58:39.623Z,36.20
2022-11-28T10:01:17.969Z,35.00
2022-11-28T10:04:09.606Z,34.10
2022-11-28T10:06:49.575Z,27.60
2022-11-28T10:09:52.204Z,31.10
2022-11-28T10:12:40.751Z,32.30
2022-11-28T10:15:19.694Z,30.70
2022-11-28T10:17:50.927Z,29.90
2022-11-28T10:20:25.657Z,33.40
2022-11-28T10:22:58.420Z,32.40
2022-11-28T10:25:31.198Z,32.60
2022-11-28T10:27:59.791Z,32.10
2022-11-28T10:30:34.226Z,27.30
2022-11-28T10:33:10.378Z,26.80
2022-11-28T10:35:49.426Z,35.10
2022-11-28T10:38:21.325Z,31.70
2022-11-28T10:41:19.228Z,25.20
2022-11-28T10:44:00.571Z,29.50
2022-11-28T10:46:45.459Z,29.30
2022-11-28T10:49:59.017Z,26.50
2022-11-28T10:52:44.693Z,28.40
2022-11-28T10:55:53.537Z,24.10
2022-11-28T10:58:35.225Z,24.40
2022-11-28T11:01:05.310Z,26.80
2022-11-28T11:03:38.730Z,22.00
2022-11-28T11:06:07.893Z,26.90
2022-11-28T11:08:39.012Z,28.10
2022-11-28T11:11:07.779Z,28.40
2022-11-28T11:13:57.562Z,31.50
2022-11-28T11:16:27.001Z,31.90
2022-11-28T11:18:56.455Z,34.00
2022-11-28T11:21:28.114Z,31.80
2022-11-28T11:24:17.550Z,32.20
2022-11-28T11:26:49.631Z,27.80
2022-11-28T11:29:21.087Z,26.70
2022-11-28T11:31:53.969Z,30.10
2022-11-28T11:34:24.109Z,28.50
2022-11-28T11:37:20.274Z,24.40
2022-11-28T11:39:53.419Z,21.90
2022-11-28T11:42:24.461Z,24.70
2022-11-28T11:44:54.669Z,20.80
2022-11-28T11:47:43.580Z,24.30
2022-11-28T11:50:21.693Z,21.30
2022-11-28T11:53:27.184Z,20.10
2022-11-28T11:56:01.181Z,20.20
2022-11-28T11:58:41.460Z,20.90
2022-11-28T12:01:11.431Z,21.70
2022-11-28T12:03:47.092Z,18.80
2022-11-28T12:06:42.951Z,16.60
2022-11-28T12:09:46.258Z,18.60
2022-11-28T12:12:22.087Z,20.30
2022-11-28T12:14:51.313Z,17.90
2022-11-28T12:20:56.448Z,19.10
2022-11-28T12:23:30.004Z,17.40
2022-11-28T12:26:18.086Z,16.10
2022-11-28T12:29:11.767Z,18.10
2022-11-28T12:31:52.428Z,18.10
2022-11-28T12:34:35.241Z,19.60
2022-11-28T12:37:54.682Z,16.90
2022-11-28T12:40:25.267Z,18.40
2022-11-28T12:43:09.196Z,18.90
2022-11-28T12:45:47.611Z,19.60
2022-11-28T12:48:34.713Z,25.70
2022-11-28T12:51:16.412Z,20.00
2022-11-28T12:54:14.385Z,20.80
2022-11-28T12:56:46.751Z,21.10
2022-11-28T12:59:37.895Z,18.40
2022-11-28T13:02:41.363Z,21.60
2022-11-28T13:05:31.353Z,21.30
2022-11-28T13:08:25.085Z,24.30
2022-11-28T13:11:18.286Z,19.80
2022-11-28T13:13:53.042Z,22.20
2022-11-28T13:16:48.684Z,18.00
2022-11-28T13:19:26.280Z,22.30
2022-11-28T13:22:36.593Z,17.80
2022-11-28T13:25:14.798Z,17.80
2022-11-28T13:27:59.350Z,18.70
2022-11-28T13:30:31.060Z,18.70
2022-11-28T13:33:05.561Z,20.30
2022-11-28T13:35:35.750Z,22.00
2022-11-28T13:38:45.974Z,20.40
2022-11-28T13:41:53.199Z,19.80
2022-11-28T13:44:30.489Z,21.90
2022-11-28T13:47:13.921Z,17.70
2022-11-28T13:49:48.695Z,17.60
2022-11-28T13:52:22.245Z,20.10
2022-11-28T13:54:50.726Z,18.60
2022-11-28T13:57:28.789Z,21.50
2022-11-28T13:59:59.671Z,21.30
2022-11-28T14:02:37.632Z,19.10
2022-11-28T14:05:23.006Z,18.00
2022-11-28T14:07:56.395Z,18.30
2022-11-28T14:10:49.816Z,18.20
2022-11-28T14:13:41.231Z,18.00
2022-11-28T14:16:21.832Z,21.00
2022-11-28T14:19:25.089Z,19.80
2022-11-28T14:21:54.193Z,21.20
2022-11-28T14:25:03.595Z,18.00
2022-11-28T14:27:37.738Z,19.50
2022-11-28T14:30:23.523Z,20.00
2022-11-28T14:32:59.688Z,21.40
2022-11-28T14:35:50.605Z,18.50
2022-11-28T14:38:31.772Z,20.80
2022-11-28T14:41:12.247Z,21.30
2022-11-28T14:43:43.215Z,17.60
2022-11-28T14:46:23.296Z,20.10
2022-11-28T14:48:58.571Z,22.90
2022-11-28T14:52:37.281Z,19.70
2022-11-28T14:55:21.555Z,19.20
2022-11-28T14:58:04.753Z,18.90
2022-11-28T15:00:48.277Z,19.30
2022-11-28T15:04:01.035Z,20.20
2022-11-28T15:06:36.073Z,21.10
2022-11-28T15:09:14.165Z,20.30
2022-11-28T15:12:13.252Z,23.50
2022-11-28T15:14:48.234Z,23.70
2022-11-28T15:17:20.973Z,26.80
2022-11-28T15:19:52.029Z,22.80
2022-11-28T15:22:38.949Z,24.70
2022-11-28T15:25:22.547Z,22.30
2022-11-28T15:27:51.650Z,26.30
2022-11-28T15:30:24.124Z,21.30
2022-11-28T15:33:02.145Z,29.10
2022-11-28T15:35:32.869Z,25.30
2022-11-28T15:38:02.387Z,24.10
2022-11-28T15:40:36.332Z,24.40
2022-11-28T15:43:12.732Z,29.50
2022-11-28T15:45:49.368Z,28.70
2022-11-28T15:48:54.365Z,27.60
2022-11-28T15:51:35.345Z,31.90
2022-11-28T15:54:42.515Z,35.40
2022-11-28T15:57:20.661Z,24.40
2022-11-28T15:59:49.614Z,29.90
2022-11-28T16:02:27.921Z,28.70
2022-11-28T16:05:09.398Z,19.00
2022-11-28T16:07:43.336Z,22.30
2022-11-28T16:10:28.427Z,25.30
2022-11-28T16:13:04.350Z,23.50
2022-11-28T16:15:33.647Z,23.30
2022-11-28T16:18:03.252Z,24.00
2022-11-28T16:20:36.546Z,28.80
2022-11-28T16:23:20.385Z,28.20
2022-11-28T16:26:23.348Z,23.90
2022-11-28T16:29:11.419Z,22.60
2022-11-28T16:31:41.712Z,17.70
2022-11-28T16:34:15.338Z,25.40
2022-11-28T16:36:47.605Z,22.10
2022-11-28T16:39:17.438Z,23.80
2022-11-28T16:41:53.888Z,21.40
2022-11-28T16:44:25.046Z,23.90
2022-11-28T16:46:57.128Z,22.30
2022-11-28T16:49:45.829Z,26.10
2022-11-28T16:52:23.749Z,24.30
2022-11-28T16:54:54.569Z,21.50
2022-11-28T16:57:26.508Z,26.30
2022-11-28T17:00:01.592Z,18.10
2022-11-28T17:02:31.765Z,28.50
2022-11-28T17:05:02.448Z,22.90
2022-11-28T17:07:35.475Z,24.80
2022-11-28T17:10:05.572Z,22.20
2022-11-28T17:12:39.868Z,23.00
2022-11-28T17:15:20.794Z,18.50
2022-11-28T17:17:50.431Z,22.10
2022-11-28T17:20:22.119Z,29.70
2022-11-28T17:22:55.182Z,23.30
2022-11-28T17:25:27.968Z,29.20
2022-11-28T17:27:57.891Z,27.70
2022-11-28T17:30:28.319Z,26.30
2022-11-28T17:33:00.683Z,23.30
2022-11-28T17:35:36.943Z,22.20
2022-11-28T17:38:06.450Z,24.90
2022-11-28T17:40:37.450Z,19.70
2022-11-28T17:43:08.738Z,21.60
2022-11-28T17:45:40.229Z,22.60
2022-11-28T17:48:16.407Z,24.50
2022-11-28T17:50:48.435Z,21.50
2022-11-28T17:53:21.474Z,24.00
2022-11-28T17:56:00.124Z,21.10
2022-11-28T17:58:34.027Z,21.80
2022-11-28T18:01:07.102Z,21.00
2022-11-28T18:03:37.291Z,23.30
2022-11-28T18:06:09.049Z,21.70
2022-11-28T18:08:46.969Z,24.10
2022-11-28T18:11:20.924Z,22.10
2022-11-28T18:13:50.508Z,25.90
2022-11-28T18:16:24.222Z,22.30
2022-11-28T18:18:54.246Z,19.30
2022-11-28T18:21:25.954Z,21.10
2022-11-28T18:23:56.412Z,22.90
2022-11-28T18:26:27.978Z,18.60
2022-11-28T18:28:57.583Z,19.90
2022-11-28T18:34:18.192Z,23.00
2022-11-28T18:36:53.258Z,37.40
2022-11-28T18:39:25.085Z,31.20
2022-11-28T18:41:54.996Z,30.10
2022-11-28T18:44:24.392Z,28.50
2022-11-28T18:46:54.930Z,24.90
2022-11-28T18:49:25.347Z,26.60
2022-11-28T18:51:57.053Z,25.50
2022-11-28T18:54:29.032Z,24.10
2022-11-28T18:56:59.206Z,24.00
2022-11-28T18:59:31.154Z,24.20
2022-11-28T19:02:02.022Z,23.10
2022-11-28T19:04:35.671Z,21.10
2022-11-28T19:07:06.221Z,21.60
2022-11-28T19:09:39.528Z,25.90
2022-11-28T19:12:11.050Z,29.00
2022-11-28T19:14:42.944Z,28.60
2022-11-28T19:17:13.471Z,26.60
2022-11-28T19:19:46.644Z,26.40
2022-11-28T19:22:20.865Z,26.70
2022-11-28T19:24:51.700Z,22.70
2022-11-28T19:27:23.159Z,27.40
2022-11-28T19:29:52.868Z,25.50
2022-11-28T19:32:23.188Z,28.10
2022-11-28T19:34:55.455Z,28.00
2022-11-28T19:37:27.310Z,25.30
2022-11-28T19:40:02.306Z,20.80
2022-11-28T19:42:34.118Z,22.50
2022-11-28T19:45:08.087Z,22.30
2022-11-28T19:47:38.348Z,22.80
2022-11-28T19:50:12.858Z,29.30
2022-11-28T19:52:45.930Z,21.60
2022-11-28T19:55:18.135Z,21.90
2022-11-28T19:57:50.187Z,26.60
2022-11-28T20:00:20.830Z,27.00
2022-11-28T20:02:51.378Z,26.50
2022-11-28T20:05:24.506Z,25.70
2022-11-28T20:07:58.770Z,21.50
2022-11-28T20:10:35.658Z,20.70
2022-11-28T20:13:10.477Z,23.10
2022-11-28T20:15:43.307Z,19.70
2022-11-28T20:18:17.266Z,23.30
2022-11-28T20:20:46.548Z,22.80
2022-11-28T20:23:16.666Z,19.20
2022-11-28T20:25:46.185Z,23.90
2022-11-28T20:28:16.127Z,20.50
2022-11-28T20:30:47.127Z,25.80
2022-11-28T20:33:19.814Z,21.30
2022-11-28T20:35:55.495Z,22.50
2022-11-28T20:38:28.347Z,24.40
2022-11-28T20:41:05.117Z,21.80
2022-11-28T20:43:36.798Z,25.20
2022-11-28T20:46:08.486Z,28.80
2022-11-28T20:48:38.245Z,25.60
2022-11-28T20:51:12.927Z,25.80
2022-11-28T20:53:44.022Z,25.70
2022-11-28T20:56:19.401Z,22.40
2022-11-28T20:58:51.118Z,28.20
2022-11-28T21:01:28.941Z,25.40
2022-11-28T21:03:59.088Z,17.30
2022-11-28T21:06:32.313Z,27.10
2022-11-28T21:09:02.124Z,24.40
2022-11-28T21:11:55.876Z,27.20
2022-11-28T21:14:20.796Z,26.10
2022-11-28T21:16:50.123Z,24.80
2022-11-28T21:19:19.937Z,27.00
2022-11-28T21:21:49.304Z,25.70
2022-11-28T21:24:18.092Z,26.60
2022-11-28T21:26:53.101Z,31.90
2022-11-28T21:29:24.259Z,31.50
2022-11-28T21:31:53.923Z,24.60
2022-11-28T21:34:23.693Z,23.80
2022-11-28T21:36:55.093Z,24.60
2022-11-28T21:39:23.751Z,24.50
2022-11-28T21:41:52.625Z,20.80
2022-11-28T21:44:21.607Z,27.80
2022-11-28T21:46:50.593Z,24.10
2022-11-28T21:49:19.507Z,22.80
2022-11-28T21:51:49.005Z,21.70
2022-11-28T21:54:17.887Z,16.70
2022-11-28T21:56:46.988Z,26.10
2022-11-28T21:59:16.723Z,23.10
2022-11-28T22:01:47.125Z,28.70
2022-11-28T22:04:16.104Z,28.30
2022-11-28T22:06:45.306Z,26.70
2022-11-28T22:09:14.304Z,23.60
2022-11-28T22:11:43.089Z,23.60
2022-11-28T22:14:13.107Z,27.60
2022-11-28T22:16:41.998Z,30.50
2022-11-28T22:19:10.678Z,26.80
2022-11-28T22:21:56.183Z,27.90
2022-11-28T22:24:25.266Z,26.40
2022-11-28T22:26:55.775Z,26.10
2022-11-28T22:29:25.608Z,34.60
2022-11-28T22:31:55.485Z,30.40
2022-11-28T22:34:25.125Z,29.30
2022-11-28T22:36:54.314Z,29.20
2022-11-28T22:39:23.314Z,30.80
2022-11-28T22:41:52.092Z,31.00
2022-11-28T22:44:22.212Z,26.20
2022-11-28T22:46:50.690Z,34.00
2022-11-28T22:49:21.171Z,29.30
2022-11-28T22:51:50.418Z,31.60
2022-11-28T22:54:21.760Z,34.60
2022-11-28T22:56:53.328Z,28.50
2022-11-28T22:59:22.262Z,25.70
2022-11-28T23:01:51.165Z,29.90
2022-11-28T23:04:19.921Z,33.30
2022-11-28T23:06:48.786Z,32.10
2022-11-28T23:09:17.567Z,28.00
2022-11-28T23:11:46.553Z,35.00
2022-11-28T23:14:16.070Z,28.80
2022-11-28T23:16:46.845Z,30.90
2022-11-28T23:19:17.649Z,28.40
2022-11-28T23:21:51.147Z,39.00
2022-11-28T23:24:22.912Z,28.20
2022-11-28T23:26:52.405Z,33.70
2022-11-28T23:29:23.846Z,31.20
2022-11-28T23:31:52.665Z,28.10
2022-11-28T23:34:21.815Z,32.10
2022-11-28T23:36:50.867Z,31.30
2022-11-28T23:39:23.306Z,27.30
2022-11-28T23:41:54.348Z,24.90
2022-11-28T23:44:22.726Z,24.70
2022-11-28T23:46:53.045Z,25.50
2022-11-28T23:49:21.946Z,30.90
2022-11-28T23:51:50.928Z,29.80
2022-11-28T23:54:19.605Z,22.40
2022-11-28T23:56:48.290Z,27.10
2022-11-28T23:59:16.789Z,32.20
